sensor_id;sensor_type;location;lat;lon;timestamp;pressure;altitude;pressure_sealevel;temperature;humidity
74181;BME280;62544;50.826;14.354;2023-01-04T00:00:39;100473.66;;;-2.49;91.65
74181;BME280;62544;50.826;14.354;2023-01-04T00:04:43;100470.65;;;-2.52;91.84
74181;BME280;62544;50.826;14.354;2023-01-04T00:08:47;100468.69;;;-2.54;92.05
74181;BME280;62544;50.826;14.354;2023-01-04T00:12:51;100466.72;;;-2.55;91.62
74181;BME280;62544;50.826;14.354;2023-01-04T00:16:55;100464.95;;;-2.58;91.71
74181;BME280;62544;50.826;14.354;2023-01-04T00:21:19;100463.28;;;-2.61;91.50
74181;BME280;62544;50.826;14.354;2023-01-04T00:25:04;100458.65;;;-2.66;91.14
74181;BME280;62544;50.826;14.354;2023-01-04T00:29:08;100453.53;;;-2.71;91.34
74181;BME280;62544;50.826;14.354;2023-01-04T00:33:11;100448.86;;;-2.75;91.46
74181;BME280;62544;50.826;14.354;2023-01-04T00:37:15;100443.92;;;-2.73;94.07
74181;BME280;62544;50.826;14.354;2023-01-04T00:41:19;100437.98;;;-2.68;94.59
74181;BME280;62544;50.826;14.354;2023-01-04T00:45:23;100435.08;;;-2.64;94.04
74181;BME280;62544;50.826;14.354;2023-01-04T00:49:28;100432.08;;;-2.59;94.18
74181;BME280;62544;50.826;14.354;2023-01-04T00:53:31;100428.09;;;-2.55;94.29
74181;BME280;62544;50.826;14.354;2023-01-04T00:57:35;100425.42;;;-2.55;94.49
74181;BME280;62544;50.826;14.354;2023-01-04T01:01:40;100423.52;;;-2.54;94.30
74181;BME280;62544;50.826;14.354;2023-01-04T01:05:43;100420.70;;;-2.54;93.48
74181;BME280;62544;50.826;14.354;2023-01-04T01:09:47;100418.99;;;-2.50;94.62
74181;BME280;62544;50.826;14.354;2023-01-04T01:13:51;100418.35;;;-2.48;94.75
74181;BME280;62544;50.826;14.354;2023-01-04T01:17:55;100419.67;;;-2.46;95.34
74181;BME280;62544;50.826;14.354;2023-01-04T01:21:59;100420.84;;;-2.44;96.04
74181;BME280;62544;50.826;14.354;2023-01-04T01:26:04;100419.61;;;-2.39;95.58
74181;BME280;62544;50.826;14.354;2023-01-04T01:30:08;100419.07;;;-2.33;95.97
74181;BME280;62544;50.826;14.354;2023-01-04T01:34:11;100417.55;;;-2.23;95.76
74181;BME280;62544;50.826;14.354;2023-01-04T01:38:15;100416.27;;;-2.11;95.55
74181;BME280;62544;50.826;14.354;2023-01-04T01:42:19;100414.88;;;-1.98;95.22
74181;BME280;62544;50.826;14.354;2023-01-04T01:46:37;100409.56;;;-1.85;95.56
74181;BME280;62544;50.826;14.354;2023-01-04T01:50:32;100402.01;;;-1.71;95.07
74181;BME280;62544;50.826;14.354;2023-01-04T01:54:32;100393.55;;;-1.58;94.42
74181;BME280;62544;50.826;14.354;2023-01-04T01:58:39;100385.77;;;-1.49;93.38
74181;BME280;62544;50.826;14.354;2023-01-04T02:02:41;100380.50;;;-1.43;93.35
74181;BME280;62544;50.826;14.354;2023-01-04T02:06:47;100377.68;;;-1.41;93.30
74181;BME280;62544;50.826;14.354;2023-01-04T02:10:47;100376.23;;;-1.40;93.25
74181;BME280;62544;50.826;14.354;2023-01-04T02:14:51;100373.14;;;-1.42;93.11
74181;BME280;62544;50.826;14.354;2023-01-04T02:18:58;100369.30;;;-1.44;94.03
74181;BME280;62544;50.826;14.354;2023-01-04T02:31:16;100355.35;;;-1.43;96.28
74181;BME280;62544;50.826;14.354;2023-01-04T02:35:16;100351.04;;;-1.41;95.90
74181;BME280;62544;50.826;14.354;2023-01-04T02:39:28;100348.17;;;-1.41;95.03
74181;BME280;62544;50.826;14.354;2023-01-04T02:43:26;100346.72;;;-1.42;94.61
74181;BME280;62544;50.826;14.354;2023-01-04T02:47:32;100343.63;;;-1.42;94.83
74181;BME280;62544;50.826;14.354;2023-01-04T02:55:37;100336.72;;;-1.49;94.36
74181;BME280;62544;50.826;14.354;2023-01-04T03:03:47;100333.20;;;-1.59;94.71
74181;BME280;62544;50.826;14.354;2023-01-04T03:11:52;100325.82;;;-1.63;94.84
74181;BME280;62544;50.826;14.354;2023-01-04T03:15:52;100320.95;;;-1.64;94.62
74181;BME280;62544;50.826;14.354;2023-01-04T03:19:56;100315.12;;;-1.67;95.25
74181;BME280;62544;50.826;14.354;2023-01-04T03:24:00;100309.71;;;-1.70;94.99
74181;BME280;62544;50.826;14.354;2023-01-04T03:28:04;100303.70;;;-1.75;95.01
74181;BME280;62544;50.826;14.354;2023-01-04T03:32:09;100296.09;;;-1.81;93.99
74181;BME280;62544;50.826;14.354;2023-01-04T03:36:17;100289.84;;;-1.87;94.98
74181;BME280;62544;50.826;14.354;2023-01-04T03:40:23;100280.75;;;-1.93;93.58
74181;BME280;62544;50.826;14.354;2023-01-04T03:44:23;100271.92;;;-2.02;93.42
74181;BME280;62544;50.826;14.354;2023-01-04T03:48:26;100262.73;;;-2.11;93.27
74181;BME280;62544;50.826;14.354;2023-01-04T03:52:28;100253.75;;;-2.20;93.10
74181;BME280;62544;50.826;14.354;2023-01-04T03:56:32;100245.51;;;-2.29;92.48
74181;BME280;62544;50.826;14.354;2023-01-04T04:00:36;100237.14;;;-2.38;92.91
74181;BME280;62544;50.826;14.354;2023-01-04T04:04:40;100229.14;;;-2.46;92.59
74181;BME280;62544;50.826;14.354;2023-01-04T04:08:44;100222.24;;;-2.55;92.78
74181;BME280;62544;50.826;14.354;2023-01-04T04:12:48;100216.42;;;-2.63;92.57
74181;BME280;62544;50.826;14.354;2023-01-04T04:16:52;100211.36;;;-2.71;92.62
74181;BME280;62544;50.826;14.354;2023-01-04T04:20:56;100208.01;;;-2.78;92.32
74181;BME280;62544;50.826;14.354;2023-01-04T04:24:59;100204.83;;;-2.86;93.18
74181;BME280;62544;50.826;14.354;2023-01-04T04:29:04;100199.49;;;-2.93;94.10
74181;BME280;62544;50.826;14.354;2023-01-04T04:33:07;100195.45;;;-2.96;94.01
74181;BME280;62544;50.826;14.354;2023-01-04T04:37:12;100191.03;;;-2.97;94.17
74181;BME280;62544;50.826;14.354;2023-01-04T04:41:16;100188.28;;;-2.97;93.64
74181;BME280;62544;50.826;14.354;2023-01-04T04:45:20;100185.72;;;-2.99;93.27
74181;BME280;62544;50.826;14.354;2023-01-04T04:49:24;100183.04;;;-3.00;93.23
74181;BME280;62544;50.826;14.354;2023-01-04T04:53:28;100179.60;;;-3.03;92.62
74181;BME280;62544;50.826;14.354;2023-01-04T04:57:32;100175.60;;;-3.05;93.74
74181;BME280;62544;50.826;14.354;2023-01-04T05:01:36;100172.96;;;-3.06;94.17
74181;BME280;62544;50.826;14.354;2023-01-04T05:05:40;100170.09;;;-3.06;93.79
74181;BME280;62544;50.826;14.354;2023-01-04T05:09:44;100166.31;;;-3.07;94.61
74181;BME280;62544;50.826;14.354;2023-01-04T05:13:48;100161.74;;;-3.06;94.04
74181;BME280;62544;50.826;14.354;2023-01-04T05:17:52;100155.27;;;-3.05;93.42
74181;BME280;62544;50.826;14.354;2023-01-04T05:21:56;100147.90;;;-3.04;93.22
74181;BME280;62544;50.826;14.354;2023-01-04T05:26:00;100140.63;;;-3.04;94.18
74181;BME280;62544;50.826;14.354;2023-01-04T05:30:04;100137.30;;;-2.98;96.26
74181;BME280;62544;50.826;14.354;2023-01-04T05:34:08;100136.18;;;-2.89;95.15
74181;BME280;62544;50.826;14.354;2023-01-04T05:38:12;100131.05;;;-2.76;95.29
74181;BME280;62544;50.826;14.354;2023-01-04T05:42:16;100123.05;;;-2.62;94.92
74181;BME280;62544;50.826;14.354;2023-01-04T05:46:20;100115.75;;;-2.46;95.99
74181;BME280;62544;50.826;14.354;2023-01-04T05:50:24;100108.95;;;-2.25;97.32
74181;BME280;62544;50.826;14.354;2023-01-04T05:54:28;100104.66;;;-1.99;98.38
74181;BME280;62544;50.826;14.354;2023-01-04T05:58:32;100099.91;;;-1.69;99.83
74181;BME280;62544;50.826;14.354;2023-01-04T06:02:36;100093.41;;;-1.33;100.00
74181;BME280;62544;50.826;14.354;2023-01-04T06:06:40;100087.13;;;-0.90;100.00
74181;BME280;62544;50.826;14.354;2023-01-04T06:10:44;100079.47;;;-0.48;100.00
74181;BME280;62544;50.826;14.354;2023-01-04T06:14:48;100071.90;;;-0.07;100.00
74181;BME280;62544;50.826;14.354;2023-01-04T06:18:52;100064.12;;;0.30;100.00
74181;BME280;62544;50.826;14.354;2023-01-04T06:22:55;100057.25;;;0.63;100.00
74181;BME280;62544;50.826;14.354;2023-01-04T06:27:00;100052.40;;;0.94;100.00
74181;BME280;62544;50.826;14.354;2023-01-04T06:31:04;100048.92;;;1.22;100.00
74181;BME280;62544;50.826;14.354;2023-01-04T06:35:08;100045.11;;;1.45;99.68
74181;BME280;62544;50.826;14.354;2023-01-04T06:39:12;100043.37;;;1.66;99.37
74181;BME280;62544;50.826;14.354;2023-01-04T06:43:16;100042.66;;;1.85;97.98
74181;BME280;62544;50.826;14.354;2023-01-04T06:47:20;100039.22;;;2.01;97.69
74181;BME280;62544;50.826;14.354;2023-01-04T06:51:24;100034.17;;;2.13;98.62
74181;BME280;62544;50.826;14.354;2023-01-04T06:55:27;100029.60;;;2.22;98.28
74181;BME280;62544;50.826;14.354;2023-01-04T06:59:32;100024.89;;;2.30;98.51
74181;BME280;62544;50.826;14.354;2023-01-04T07:03:35;100017.07;;;2.37;98.40
74181;BME280;62544;50.826;14.354;2023-01-04T07:07:40;100008.48;;;2.45;97.03
74181;BME280;62544;50.826;14.354;2023-01-04T07:11:44;99999.10;;;2.51;97.87
74181;BME280;62544;50.826;14.354;2023-01-04T07:15:47;99991.41;;;2.57;96.90
74181;BME280;62544;50.826;14.354;2023-01-04T07:19:51;99984.67;;;2.64;96.41
74181;BME280;62544;50.826;14.354;2023-01-04T07:23:55;99979.42;;;2.68;96.63
74181;BME280;62544;50.826;14.354;2023-01-04T07:28:00;99973.49;;;2.71;95.74
74181;BME280;62544;50.826;14.354;2023-01-04T07:32:04;99967.22;;;2.74;96.33
74181;BME280;62544;50.826;14.354;2023-01-04T07:36:08;99962.67;;;2.75;96.02
74181;BME280;62544;50.826;14.354;2023-01-04T07:40:11;99962.47;;;2.77;95.33
74181;BME280;62544;50.826;14.354;2023-01-04T07:44:15;99962.03;;;2.80;95.00
74181;BME280;62544;50.826;14.354;2023-01-04T07:48:19;99960.57;;;2.82;95.35
74181;BME280;62544;50.826;14.354;2023-01-04T07:52:24;99958.39;;;2.83;95.24
74181;BME280;62544;50.826;14.354;2023-01-04T07:56:27;99955.84;;;2.87;94.61
74181;BME280;62544;50.826;14.354;2023-01-04T08:00:32;99951.54;;;2.91;94.33
74181;BME280;62544;50.826;14.354;2023-01-04T08:04:35;99943.39;;;2.93;94.40
74181;BME280;62544;50.826;14.354;2023-01-04T08:08:40;99937.94;;;2.95;94.73
74181;BME280;62544;50.826;14.354;2023-01-04T08:12:43;99936.75;;;2.97;94.77
74181;BME280;62544;50.826;14.354;2023-01-04T08:16:47;99936.27;;;3.02;93.70
74181;BME280;62544;50.826;14.354;2023-01-04T08:21:01;99935.21;;;3.07;94.03
74181;BME280;62544;50.826;14.354;2023-01-04T08:24:55;99931.55;;;3.10;93.95
74181;BME280;62544;50.826;14.354;2023-01-04T08:28:59;99927.04;;;3.15;93.58
74181;BME280;62544;50.826;14.354;2023-01-04T08:33:11;99921.75;;;3.18;94.20
74181;BME280;62544;50.826;14.354;2023-01-04T08:37:07;99916.00;;;3.23;93.16
74181;BME280;62544;50.826;14.354;2023-01-04T08:41:11;99908.40;;;3.34;92.37
74181;BME280;62544;50.826;14.354;2023-01-04T08:45:15;99905.07;;;3.48;91.70
74181;BME280;62544;50.826;14.354;2023-01-04T08:49:20;99905.08;;;3.70;89.00
74181;BME280;62544;50.826;14.354;2023-01-04T08:53:23;99902.44;;;3.93;87.37
74181;BME280;62544;50.826;14.354;2023-01-04T08:57:27;99894.17;;;4.07;88.68
74181;BME280;62544;50.826;14.354;2023-01-04T09:01:32;99880.81;;;4.16;88.89
74181;BME280;62544;50.826;14.354;2023-01-04T09:05:35;99873.27;;;4.20;90.39
74181;BME280;62544;50.826;14.354;2023-01-04T09:09:39;99863.87;;;4.23;90.60
74181;BME280;62544;50.826;14.354;2023-01-04T09:13:43;99854.46;;;4.28;91.10
74181;BME280;62544;50.826;14.354;2023-01-04T09:17:50;99844.31;;;4.32;91.48
74181;BME280;62544;50.826;14.354;2023-01-04T09:21:51;99837.27;;;4.34;92.47
74181;BME280;62544;50.826;14.354;2023-01-04T09:25:55;99831.09;;;4.33;93.67
74181;BME280;62544;50.826;14.354;2023-01-04T09:29:59;99823.36;;;4.34;93.41
74181;BME280;62544;50.826;14.354;2023-01-04T09:34:03;99813.28;;;4.36;93.63
74181;BME280;62544;50.826;14.354;2023-01-04T09:38:07;99802.00;;;4.37;93.75
74181;BME280;62544;50.826;14.354;2023-01-04T09:42:16;99790.52;;;4.39;93.50
74181;BME280;62544;50.826;14.354;2023-01-04T09:46:17;99777.46;;;4.40;93.05
74181;BME280;62544;50.826;14.354;2023-01-04T09:54:25;99754.64;;;4.47;92.97
74181;BME280;62544;50.826;14.354;2023-01-04T09:58:34;99740.67;;;4.50;91.96
74181;BME280;62544;50.826;14.354;2023-01-04T10:02:47;99731.48;;;4.52;92.29
74181;BME280;62544;50.826;14.354;2023-01-04T10:06:35;99726.18;;;4.55;91.90
74181;BME280;62544;50.826;14.354;2023-01-04T10:10:45;99720.58;;;4.57;91.57
74181;BME280;62544;50.826;14.354;2023-01-04T10:14:53;99715.75;;;4.58;92.01
74181;BME280;62544;50.826;14.354;2023-01-04T10:23:02;99699.06;;;4.61;91.05
74181;BME280;62544;50.826;14.354;2023-01-04T10:26:59;99694.92;;;4.60;91.82
74181;BME280;62544;50.826;14.354;2023-01-04T10:31:10;99690.23;;;4.59;92.24
74181;BME280;62544;50.826;14.354;2023-01-04T10:35:17;99683.44;;;4.60;91.11
74181;BME280;62544;50.826;14.354;2023-01-04T10:39:17;99674.41;;;4.63;90.78
74181;BME280;62544;50.826;14.354;2023-01-04T10:43:21;99664.29;;;4.67;90.93
74181;BME280;62544;50.826;14.354;2023-01-04T10:51:20;99646.48;;;4.73;90.08
74181;BME280;62544;50.826;14.354;2023-01-04T10:59:28;99632.87;;;4.81;88.65
74181;BME280;62544;50.826;14.354;2023-01-04T11:03:40;99621.04;;;4.85;88.84
74181;BME280;62544;50.826;14.354;2023-01-04T11:07:45;99602.70;;;4.88;88.60
74181;BME280;62544;50.826;14.354;2023-01-04T11:11:41;99589.53;;;4.88;89.61
74181;BME280;62544;50.826;14.354;2023-01-04T11:15:43;99586.31;;;4.89;89.17
74181;BME280;62544;50.826;14.354;2023-01-04T11:19:47;99582.93;;;4.89;88.86
74181;BME280;62544;50.826;14.354;2023-01-04T11:23:51;99580.57;;;4.90;89.87
74181;BME280;62544;50.826;14.354;2023-01-04T11:27:56;99575.08;;;4.95;90.86
74181;BME280;62544;50.826;14.354;2023-01-04T11:32:01;99571.23;;;5.00;91.47
74181;BME280;62544;50.826;14.354;2023-01-04T11:36:03;99566.88;;;5.09;90.93
74181;BME280;62544;50.826;14.354;2023-01-04T11:40:11;99557.85;;;5.16;91.05
74181;BME280;62544;50.826;14.354;2023-01-04T11:44:11;99546.51;;;5.17;91.82
74181;BME280;62544;50.826;14.354;2023-01-04T11:48:15;99541.55;;;5.17;90.79
74181;BME280;62544;50.826;14.354;2023-01-04T11:52:30;99534.80;;;5.15;91.83
74181;BME280;62544;50.826;14.354;2023-01-04T11:56:23;99529.78;;;5.17;92.06
74181;BME280;62544;50.826;14.354;2023-01-04T12:00:27;99526.18;;;5.22;91.32
74181;BME280;62544;50.826;14.354;2023-01-04T12:04:31;99520.42;;;5.30;90.66
74181;BME280;62544;50.826;14.354;2023-01-04T12:08:35;99511.44;;;5.36;90.26
74181;BME280;62544;50.826;14.354;2023-01-04T12:12:39;99502.08;;;5.37;90.15
74181;BME280;62544;50.826;14.354;2023-01-04T12:20:47;99485.11;;;5.47;90.40
74181;BME280;62544;50.826;14.354;2023-01-04T12:24:51;99474.83;;;5.54;89.24
74181;BME280;62544;50.826;14.354;2023-01-04T12:32:59;99456.67;;;5.63;89.36
74181;BME280;62544;50.826;14.354;2023-01-04T12:37:04;99447.53;;;5.69;87.73
74181;BME280;62544;50.826;14.354;2023-01-04T12:41:07;99439.36;;;5.73;88.44
74181;BME280;62544;50.826;14.354;2023-01-04T12:45:12;99431.03;;;5.77;86.76
74181;BME280;62544;50.826;14.354;2023-01-04T12:57:24;99408.26;;;5.90;85.23
74181;BME280;62544;50.826;14.354;2023-01-04T13:01:27;99402.40;;;5.98;85.70
74181;BME280;62544;50.826;14.354;2023-01-04T13:05:34;99397.09;;;6.08;83.82
74181;BME280;62544;50.826;14.354;2023-01-04T13:09:38;99393.45;;;6.15;84.66
74181;BME280;62544;50.826;14.354;2023-01-04T13:13:47;99392.94;;;6.20;84.13
74181;BME280;62544;50.826;14.354;2023-01-04T13:17:43;99391.05;;;6.26;85.00
74181;BME280;62544;50.826;14.354;2023-01-04T13:21:47;99383.84;;;6.28;85.77
74181;BME280;62544;50.826;14.354;2023-01-04T13:25:51;99376.00;;;6.29;84.91
74181;BME280;62544;50.826;14.354;2023-01-04T13:29:55;99372.19;;;6.30;85.48
74181;BME280;62544;50.826;14.354;2023-01-04T13:33:59;99367.33;;;6.33;86.28
74181;BME280;62544;50.826;14.354;2023-01-04T13:38:03;99362.52;;;6.39;86.71
74181;BME280;62544;50.826;14.354;2023-01-04T13:42:26;99361.77;;;6.39;88.31
74181;BME280;62544;50.826;14.354;2023-01-04T13:50:26;99354.91;;;6.41;89.15
74181;BME280;62544;50.826;14.354;2023-01-04T13:54:20;99352.09;;;6.44;88.23
74181;BME280;62544;50.826;14.354;2023-01-04T13:58:27;99350.17;;;6.50;87.46
74181;BME280;62544;50.826;14.354;2023-01-04T14:02:27;99345.65;;;6.57;87.60
74181;BME280;62544;50.826;14.354;2023-01-04T14:10:35;99331.02;;;6.60;86.17
74181;BME280;62544;50.826;14.354;2023-01-04T14:14:52;99321.41;;;6.65;87.05
74181;BME280;62544;50.826;14.354;2023-01-04T14:18:43;99314.31;;;6.70;86.20
74181;BME280;62544;50.826;14.354;2023-01-04T14:26:51;99301.81;;;6.85;85.80
74181;BME280;62544;50.826;14.354;2023-01-04T14:35:03;99294.02;;;7.00;85.56
74181;BME280;62544;50.826;14.354;2023-01-04T14:47:11;99276.42;;;7.07;86.40
74181;BME280;62544;50.826;14.354;2023-01-04T14:51:19;99269.42;;;7.07;87.09
74181;BME280;62544;50.826;14.354;2023-01-04T14:55:19;99264.53;;;7.06;87.09
74181;BME280;62544;50.826;14.354;2023-01-04T14:59:23;99262.56;;;7.06;86.75
74181;BME280;62544;50.826;14.354;2023-01-04T15:03:27;99260.85;;;7.05;87.30
74181;BME280;62544;50.826;14.354;2023-01-04T15:07:35;99258.09;;;7.05;87.37
74181;BME280;62544;50.826;14.354;2023-01-04T15:11:35;99256.60;;;7.00;87.16
74181;BME280;62544;50.826;14.354;2023-01-04T15:15:39;99256.72;;;6.95;86.82
74181;BME280;62544;50.826;14.354;2023-01-04T15:19:43;99259.56;;;6.92;87.09
74181;BME280;62544;50.826;14.354;2023-01-04T15:23:47;99261.11;;;6.93;86.95
74181;BME280;62544;50.826;14.354;2023-01-04T15:27:51;99258.07;;;6.92;87.60
74181;BME280;62544;50.826;14.354;2023-01-04T15:31:55;99253.05;;;6.91;86.46
74181;BME280;62544;50.826;14.354;2023-01-04T15:36:00;99248.27;;;6.88;87.57
74181;BME280;62544;50.826;14.354;2023-01-04T15:40:03;99243.50;;;6.86;88.76
74181;BME280;62544;50.826;14.354;2023-01-04T15:44:08;99237.58;;;6.85;90.11
74181;BME280;62544;50.826;14.354;2023-01-04T15:48:11;99232.28;;;6.85;90.99
74181;BME280;62544;50.826;14.354;2023-01-04T15:52:15;99228.23;;;6.85;92.57
74181;BME280;62544;50.826;14.354;2023-01-04T15:56:19;99224.70;;;6.83;93.29
74181;BME280;62544;50.826;14.354;2023-01-04T16:00:23;99221.58;;;6.81;93.34
74181;BME280;62544;50.826;14.354;2023-01-04T16:04:27;99217.05;;;6.79;93.02
74181;BME280;62544;50.826;14.354;2023-01-04T16:08:31;99215.89;;;6.79;93.43
74181;BME280;62544;50.826;14.354;2023-01-04T16:12:35;99212.82;;;6.80;93.81
74181;BME280;62544;50.826;14.354;2023-01-04T16:16:39;99208.61;;;6.79;93.11
74181;BME280;62544;50.826;14.354;2023-01-04T16:20:43;99205.33;;;6.77;95.18
74181;BME280;62544;50.826;14.354;2023-01-04T16:24:47;99204.02;;;6.78;95.42
74181;BME280;62544;50.826;14.354;2023-01-04T16:28:52;99201.03;;;6.79;96.05
74181;BME280;62544;50.826;14.354;2023-01-04T16:32:55;99195.97;;;6.81;95.82
74181;BME280;62544;50.826;14.354;2023-01-04T16:36:59;99188.58;;;6.85;95.29
74181;BME280;62544;50.826;14.354;2023-01-04T16:41:03;99184.77;;;6.87;95.76
74181;BME280;62544;50.826;14.354;2023-01-04T16:45:07;99178.14;;;6.91;95.60
74181;BME280;62544;50.826;14.354;2023-01-04T16:49:12;99170.40;;;6.96;95.57
74181;BME280;62544;50.826;14.354;2023-01-04T16:53:15;99163.28;;;7.00;95.22
74181;BME280;62544;50.826;14.354;2023-01-04T16:57:19;99158.26;;;7.02;95.42
74181;BME280;62544;50.826;14.354;2023-01-04T17:01:30;99152.87;;;7.05;95.25
74181;BME280;62544;50.826;14.354;2023-01-04T17:05:27;99149.77;;;7.09;94.47
74181;BME280;62544;50.826;14.354;2023-01-04T17:09:31;99146.00;;;7.06;96.13
74181;BME280;62544;50.826;14.354;2023-01-04T17:13:35;99142.24;;;7.05;96.54
74181;BME280;62544;50.826;14.354;2023-01-04T17:17:39;99137.73;;;7.06;96.44
74181;BME280;62544;50.826;14.354;2023-01-04T17:21:43;99132.26;;;7.10;95.91
74181;BME280;62544;50.826;14.354;2023-01-04T17:25:47;99125.39;;;7.11;96.68
74181;BME280;62544;50.826;14.354;2023-01-04T17:29:51;99116.86;;;7.13;96.26
74181;BME280;62544;50.826;14.354;2023-01-04T17:33:55;99112.95;;;7.15;96.35
74181;BME280;62544;50.826;14.354;2023-01-04T17:37:59;99112.82;;;7.20;96.49
74181;BME280;62544;50.826;14.354;2023-01-04T17:42:03;99109.50;;;7.20;97.25
74181;BME280;62544;50.826;14.354;2023-01-04T17:46:08;99105.77;;;7.22;97.33
74181;BME280;62544;50.826;14.354;2023-01-04T17:50:11;99101.00;;;7.26;96.99
74181;BME280;62544;50.826;14.354;2023-01-04T17:54:15;99095.51;;;7.28;97.38
74181;BME280;62544;50.826;14.354;2023-01-04T17:58:19;99088.20;;;7.31;97.66
74181;BME280;62544;50.826;14.354;2023-01-04T18:02:23;99081.98;;;7.35;97.34
74181;BME280;62544;50.826;14.354;2023-01-04T18:06:31;99076.65;;;7.37;97.04
74181;BME280;62544;50.826;14.354;2023-01-04T18:10:31;99076.01;;;7.42;96.65
74181;BME280;62544;50.826;14.354;2023-01-04T18:14:35;99075.27;;;7.47;96.24
74181;BME280;62544;50.826;14.354;2023-01-04T18:18:39;99071.08;;;7.52;95.75
74181;BME280;62544;50.826;14.354;2023-01-04T18:22:43;99066.05;;;7.56;95.83
74181;BME280;62544;50.826;14.354;2023-01-04T18:26:47;99061.21;;;7.60;95.71
74181;BME280;62544;50.826;14.354;2023-01-04T18:30:51;99056.45;;;7.61;96.20
74181;BME280;62544;50.826;14.354;2023-01-04T18:34:55;99050.17;;;7.61;96.25
74181;BME280;62544;50.826;14.354;2023-01-04T18:38:59;99044.59;;;7.58;97.18
74181;BME280;62544;50.826;14.354;2023-01-04T18:43:03;99039.01;;;7.56;97.36
74181;BME280;62544;50.826;14.354;2023-01-04T18:47:07;99033.40;;;7.57;97.02
74181;BME280;62544;50.826;14.354;2023-01-04T18:51:11;99026.40;;;7.60;96.17
74181;BME280;62544;50.826;14.354;2023-01-04T18:55:15;99018.61;;;7.62;96.00
74181;BME280;62544;50.826;14.354;2023-01-04T18:59:19;99010.44;;;7.65;95.53
74181;BME280;62544;50.826;14.354;2023-01-04T19:03:23;99003.31;;;7.66;95.75
74181;BME280;62544;50.826;14.354;2023-01-04T19:07:27;98997.33;;;7.69;95.03
74181;BME280;62544;50.826;14.354;2023-01-04T19:11:31;98993.73;;;7.72;95.28
74181;BME280;62544;50.826;14.354;2023-01-04T19:15:35;98990.30;;;7.73;95.88
74181;BME280;62544;50.826;14.354;2023-01-04T19:19:39;98987.81;;;7.73;95.81
74181;BME280;62544;50.826;14.354;2023-01-04T19:23:43;98986.81;;;7.74;96.22
74181;BME280;62544;50.826;14.354;2023-01-04T19:27:47;98986.89;;;7.75;95.73
74181;BME280;62544;50.826;14.354;2023-01-04T19:31:51;98988.34;;;7.77;95.81
74181;BME280;62544;50.826;14.354;2023-01-04T19:35:55;98988.79;;;7.80;95.40
74181;BME280;62544;50.826;14.354;2023-01-04T19:39:59;98986.56;;;7.84;94.77
74181;BME280;62544;50.826;14.354;2023-01-04T19:44:04;98983.39;;;7.87;94.90
74181;BME280;62544;50.826;14.354;2023-01-04T19:48:07;98980.39;;;7.93;93.74
74181;BME280;62544;50.826;14.354;2023-01-04T19:52:11;98976.64;;;7.99;93.62
74181;BME280;62544;50.826;14.354;2023-01-04T19:56:15;98968.05;;;8.04;93.36
74181;BME280;62544;50.826;14.354;2023-01-04T20:00:19;98960.83;;;8.08;92.78
74181;BME280;62544;50.826;14.354;2023-01-04T20:04:23;98955.78;;;8.13;92.95
74181;BME280;62544;50.826;14.354;2023-01-04T20:08:27;98948.97;;;8.16;92.39
74181;BME280;62544;50.826;14.354;2023-01-04T20:12:31;98945.67;;;8.19;92.07
74181;BME280;62544;50.826;14.354;2023-01-04T20:16:35;98945.42;;;8.24;91.62
74181;BME280;62544;50.826;14.354;2023-01-04T20:20:40;98942.31;;;8.26;91.62
74181;BME280;62544;50.826;14.354;2023-01-04T20:24:43;98938.83;;;8.30;91.02
74181;BME280;62544;50.826;14.354;2023-01-04T20:28:47;98937.21;;;8.33;90.83
74181;BME280;62544;50.826;14.354;2023-01-04T20:32:51;98935.63;;;8.33;91.07
74181;BME280;62544;50.826;14.354;2023-01-04T20:36:55;98935.24;;;8.32;90.84
74181;BME280;62544;50.826;14.354;2023-01-04T20:40:59;98933.56;;;8.33;90.75
74181;BME280;62544;50.826;14.354;2023-01-04T20:45:03;98928.43;;;8.37;89.90
74181;BME280;62544;50.826;14.354;2023-01-04T20:49:07;98923.08;;;8.42;89.56
74181;BME280;62544;50.826;14.354;2023-01-04T20:53:11;98921.15;;;8.47;89.71
74181;BME280;62544;50.826;14.354;2023-01-04T20:57:15;98920.40;;;8.52;89.06
74181;BME280;62544;50.826;14.354;2023-01-04T21:01:20;98917.85;;;8.56;89.54
74181;BME280;62544;50.826;14.354;2023-01-04T21:05:23;98916.33;;;8.63;88.83
74181;BME280;62544;50.826;14.354;2023-01-04T21:09:27;98914.54;;;8.70;87.99
74181;BME280;62544;50.826;14.354;2023-01-04T21:13:31;98911.52;;;8.76;88.31
74181;BME280;62544;50.826;14.354;2023-01-04T21:17:35;98908.01;;;8.80;88.36
74181;BME280;62544;50.826;14.354;2023-01-04T21:21:39;98904.66;;;8.82;88.60
74181;BME280;62544;50.826;14.354;2023-01-04T21:25:43;98900.79;;;8.86;88.36
74181;BME280;62544;50.826;14.354;2023-01-04T21:29:47;98892.83;;;8.89;88.34
74181;BME280;62544;50.826;14.354;2023-01-04T21:33:52;98882.30;;;8.89;88.67
74181;BME280;62544;50.826;14.354;2023-01-04T21:37:55;98873.49;;;8.91;88.67
74181;BME280;62544;50.826;14.354;2023-01-04T21:41:59;98865.10;;;8.95;88.36
74181;BME280;62544;50.826;14.354;2023-01-04T21:46:10;98856.45;;;8.98;88.39
74181;BME280;62544;50.826;14.354;2023-01-04T21:50:07;98848.33;;;9.01;88.02
74181;BME280;62544;50.826;14.354;2023-01-04T21:54:11;98840.99;;;9.06;87.46
74181;BME280;62544;50.826;14.354;2023-01-04T21:58:15;98834.41;;;9.08;88.37
74181;BME280;62544;50.826;14.354;2023-01-04T22:02:19;98830.00;;;9.12;87.55
74181;BME280;62544;50.826;14.354;2023-01-04T22:06:23;98824.98;;;9.14;88.03
74181;BME280;62544;50.826;14.354;2023-01-04T22:10:27;98820.89;;;9.14;88.19
74181;BME280;62544;50.826;14.354;2023-01-04T22:14:31;98817.79;;;9.16;87.96
74181;BME280;62544;50.826;14.354;2023-01-04T22:18:35;98815.89;;;9.22;87.53
74181;BME280;62544;50.826;14.354;2023-01-04T22:22:39;98813.89;;;9.26;87.41
74181;BME280;62544;50.826;14.354;2023-01-04T22:26:43;98811.72;;;9.26;88.36
74181;BME280;62544;50.826;14.354;2023-01-04T22:30:47;98810.86;;;9.25;88.55
74181;BME280;62544;50.826;14.354;2023-01-04T22:34:51;98808.99;;;9.27;87.99